Fire Island, New York
Current Conditions -  °F | °C
As of 10:56 AM on Thursday 30 Oct 2014 (Local Time) from KISP Reporting Station
Few Clouds Few Clouds  
Wind Chill: 57°   Ceiling: Unl
Heat Index: 57°   Visibility: 10mi
Dew Point: 44°   Wind: 9mph
Humidity: 62%   Direction: 310°NW
Pressure: 29.97"   Gusts: NA
Location:  40.6448°N, 73.1603°W
Report Text: KISP 301456Z 31008KT 10SM FEW040 FEW075 14/07 A2997 RMK AO2 SLP148 T01390067 51005
Loading
Personal Weather Stations






























Interactive Weather Map
Tropical Storm Tracking
New forecast layout! Learn more

10-Day Weather Forecast

Advertisements
Track Severe Weather on mobile